createdAt,value
2023-01-20T00:00:17.979Z,99335.34
2023-01-20T00:00:52.373Z,99336.66
2023-01-20T00:01:23.826Z,99338.56
2023-01-20T00:01:55.294Z,99333.41
2023-01-20T00:02:26.737Z,99336.13
2023-01-20T00:02:58.253Z,99329.88
2023-01-20T00:03:29.745Z,99336.13
2023-01-20T00:04:01.355Z,99339.16
2023-01-20T00:04:32.807Z,99335.34
2023-01-20T00:05:04.243Z,99331.00
2023-01-20T00:05:35.687Z,99338.88
2023-01-20T00:06:07.140Z,99335.34
2023-01-20T00:06:38.598Z,99338.06
2023-01-20T00:07:10.098Z,99332.91
2023-01-20T00:07:41.511Z,99334.00
2023-01-20T00:08:12.936Z,99336.75
2023-01-20T00:08:44.329Z,99337.56
2023-01-20T00:09:15.749Z,99337.56
2023-01-20T00:09:47.188Z,99343.81
2023-01-20T00:10:18.598Z,99337.25
2023-01-20T00:10:50.037Z,99338.06
2023-01-20T00:11:21.501Z,99336.44
2023-01-20T00:11:52.954Z,99337.56
2023-01-20T00:12:24.360Z,99339.47
2023-01-20T00:12:55.823Z,99341.09
2023-01-20T00:13:27.218Z,99334.81
2023-01-20T00:13:58.635Z,99336.75
2023-01-20T00:14:30.028Z,99341.09
2023-01-20T00:15:01.425Z,99341.38
2023-01-20T00:15:32.819Z,99337.56
2023-01-20T00:16:04.247Z,99338.34
2023-01-20T00:16:35.754Z,99344.09
2023-01-20T00:17:07.162Z,99341.88
2023-01-20T00:17:38.563Z,99342.19
2023-01-20T00:18:09.981Z,99339.97
2023-01-20T00:18:41.385Z,99341.59
2023-01-20T00:19:12.792Z,99342.41
2023-01-20T00:19:44.235Z,99348.44
2023-01-20T00:20:15.677Z,99344.63
2023-01-20T00:20:47.022Z,99342.50
2023-01-20T00:21:18.532Z,99344.91
2023-01-20T00:21:49.972Z,99343.81
2023-01-20T00:22:21.474Z,99342.69
2023-01-20T00:22:52.880Z,99345.72
2023-01-20T00:23:24.280Z,99344.91
2023-01-20T00:23:55.738Z,99341.88
2023-01-20T00:24:27.244Z,99343.81
2023-01-20T00:24:58.691Z,99347.66
2023-01-20T00:25:30.075Z,99346.31
2023-01-20T00:26:01.432Z,99350.66
2023-01-20T00:26:32.895Z,99347.34
2023-01-20T00:27:04.289Z,99340.78
2023-01-20T00:27:35.748Z,99350.06
2023-01-20T00:28:07.158Z,99346.44
2023-01-20T00:28:38.592Z,99353.28
2023-01-20T00:29:10.063Z,99351.38
2023-01-20T00:29:41.643Z,99351.38
2023-01-20T00:30:13.099Z,99347.84
2023-01-20T00:30:44.563Z,99353.28
2023-01-20T00:31:16.096Z,99350.56
2023-01-20T00:31:47.604Z,99350.28
2023-01-20T00:32:19.079Z,99353.81
2023-01-20T00:32:50.491Z,99351.88
2023-01-20T00:33:21.863Z,99352.50
2023-01-20T00:33:53.269Z,99356.84
2023-01-20T00:34:24.767Z,99350.28
2023-01-20T00:34:56.213Z,99351.38
2023-01-20T00:35:27.624Z,99353.28
2023-01-20T00:35:59.059Z,99353.81
2023-01-20T00:36:30.503Z,99355.72
2023-01-20T00:37:02.032Z,99353.81
2023-01-20T00:37:33.669Z,99358.94
2023-01-20T00:38:05.196Z,99356.53
2023-01-20T00:38:36.620Z,99360.88
2023-01-20T00:39:08.028Z,99358.75
2023-01-20T00:39:39.471Z,99361.47
2023-01-20T00:40:10.915Z,99357.13
2023-01-20T00:40:42.354Z,99356.84
2023-01-20T00:41:13.790Z,99364.19
2023-01-20T00:41:45.172Z,99363.38
2023-01-20T00:42:16.682Z,99360.38
2023-01-20T00:42:48.101Z,99363.69
2023-01-20T00:43:19.528Z,99357.13
2023-01-20T00:43:50.920Z,99356.03
2023-01-20T00:44:22.309Z,99366.63
2023-01-20T00:44:53.728Z,99364.72
2023-01-20T00:45:25.125Z,99371.25
2023-01-20T00:45:56.530Z,99368.25
2023-01-20T00:46:28.071Z,99360.38
2023-01-20T00:46:59.538Z,99365.81
2023-01-20T00:47:31.051Z,99364.50
2023-01-20T00:48:02.474Z,99366.72
2023-01-20T00:48:33.914Z,99367.22
2023-01-20T00:49:05.330Z,99362.59
2023-01-20T00:49:36.739Z,99371.06
2023-01-20T00:50:08.288Z,99366.13
2023-01-20T00:50:39.702Z,99368.25
2023-01-20T00:51:11.153Z,99361.16
2023-01-20T00:51:42.555Z,99374.00
2023-01-20T00:52:13.953Z,99369.66
2023-01-20T00:52:45.423Z,99371.25
2023-01-20T00:53:16.862Z,99369.16
2023-01-20T00:53:48.270Z,99366.41
2023-01-20T00:54:19.688Z,99366.13
2023-01-20T00:54:51.125Z,99368.53
2023-01-20T00:55:22.507Z,99366.31
2023-01-20T00:55:53.883Z,99368.25
2023-01-20T00:56:25.290Z,99371.78
2023-01-20T00:56:56.738Z,99366.91
2023-01-20T00:57:28.125Z,99363.69
2023-01-20T00:57:59.643Z,99365.31
2023-01-20T00:58:31.142Z,99367.22
2023-01-20T00:59:02.530Z,99370.47
2023-01-20T00:59:33.921Z,99368.53
2023-01-20T01:00:05.347Z,99366.63
2023-01-20T01:00:36.815Z,99365.50
2023-01-20T01:01:08.327Z,99366.13
2023-01-20T01:01:39.888Z,99361.16
2023-01-20T01:02:11.405Z,99372.88
2023-01-20T01:02:42.883Z,99368.53
2023-01-20T01:03:14.321Z,99370.47
2023-01-20T01:03:45.720Z,99370.16
2023-01-20T01:04:17.098Z,99363.38
2023-01-20T01:04:48.511Z,99371.88
2023-01-20T01:05:19.910Z,99364.72
2023-01-20T01:05:51.279Z,99372.06
2023-01-20T01:06:22.675Z,99367.44
2023-01-20T01:06:54.121Z,99374.00
2023-01-20T01:07:25.523Z,99372.69
2023-01-20T01:07:56.942Z,99372.88
2023-01-20T01:08:28.419Z,99368.53
2023-01-20T01:08:59.840Z,99370.75
2023-01-20T01:09:31.263Z,99368.03
2023-01-20T01:10:02.653Z,99368.03
2023-01-20T01:10:34.045Z,99371.25
2023-01-20T01:11:05.488Z,99376.22
2023-01-20T01:11:36.890Z,99376.22
2023-01-20T01:12:08.397Z,99367.22
2023-01-20T01:12:39.837Z,99377.03
2023-01-20T01:13:11.255Z,99376.72
2023-01-20T01:13:45.334Z,99367.44
2023-01-20T01:14:16.734Z,99371.78
2023-01-20T01:14:48.119Z,99379.13
2023-01-20T01:15:19.588Z,99380.75
2023-01-20T01:15:51.071Z,99379.94
2023-01-20T01:16:22.638Z,99374.50
2023-01-20T01:16:56.514Z,99372.56
2023-01-20T01:17:28.793Z,99374.78
2023-01-20T01:18:00.268Z,99369.34
2023-01-20T01:18:31.682Z,99378.34
2023-01-20T01:19:03.117Z,99374.28
2023-01-20T01:19:34.613Z,99375.41
2023-01-20T01:20:06.046Z,99378.13
2023-01-20T01:20:37.433Z,99379.75
2023-01-20T01:21:08.915Z,99383.28
2023-01-20T01:21:40.331Z,99383.28
2023-01-20T01:22:11.861Z,99380.56
2023-01-20T01:22:43.275Z,99384.38
2023-01-20T01:23:14.664Z,99387.63
2023-01-20T01:23:46.120Z,99387.31
2023-01-20T01:24:17.551Z,99381.56
2023-01-20T01:24:48.936Z,99391.66
2023-01-20T01:25:20.398Z,99385.09
2023-01-20T01:25:51.820Z,99391.66
2023-01-20T01:26:23.312Z,99390.84
2023-01-20T01:26:54.797Z,99389.75
2023-01-20T01:27:26.261Z,99386.22
2023-01-20T01:27:57.728Z,99392.75
2023-01-20T01:28:29.156Z,99393.56
2023-01-20T01:29:00.567Z,99391.97
2023-01-20T01:29:31.981Z,99390.84
2023-01-20T01:30:03.412Z,99394.69
2023-01-20T01:30:34.882Z,99390.34
2023-01-20T01:31:06.401Z,99391.44
2023-01-20T01:31:38.021Z,99394.69
2023-01-20T01:32:09.514Z,99397.09
2023-01-20T01:32:40.977Z,99395.19
2023-01-20T01:33:12.342Z,99399.03
2023-01-20T01:33:43.774Z,99397.41
2023-01-20T01:34:15.175Z,99395.50
2023-01-20T01:34:46.562Z,99399.31
2023-01-20T01:35:17.967Z,99401.25
2023-01-20T01:35:49.362Z,99408.41
2023-01-20T01:36:20.754Z,99390.66
2023-01-20T01:36:52.151Z,99396.91
2023-01-20T01:37:23.673Z,99402.34
2023-01-20T01:37:55.081Z,99396.91
2023-01-20T01:38:26.484Z,99400.44
2023-01-20T01:38:58.980Z,99402.34
2023-01-20T01:39:30.716Z,99405.38
2023-01-20T01:40:02.160Z,99399.63
2023-01-20T01:40:33.524Z,99406.78
2023-01-20T01:41:04.944Z,99402.16
2023-01-20T01:41:39.430Z,99395.88
2023-01-20T01:42:11.056Z,99404.56
2023-01-20T01:42:42.939Z,99404.56
2023-01-20T01:43:14.417Z,99405.69
2023-01-20T01:43:45.789Z,99405.38
2023-01-20T01:44:17.238Z,99406.50
2023-01-20T01:44:48.697Z,99408.91
2023-01-20T01:45:20.132Z,99404.56
2023-01-20T01:45:51.609Z,99399.63
2023-01-20T01:46:23.028Z,99398.81
2023-01-20T01:46:54.489Z,99400.94
2023-01-20T01:47:25.921Z,99398.53
2023-01-20T01:47:57.386Z,99407.19
2023-01-20T01:48:28.821Z,99403.97
2023-01-20T01:49:00.229Z,99400.44
2023-01-20T01:49:31.656Z,99405.38
2023-01-20T01:50:03.022Z,99399.94
2023-01-20T01:50:34.427Z,99406.19
2023-01-20T01:51:05.850Z,99401.53
2023-01-20T01:51:37.323Z,99410.22
2023-01-20T01:52:08.759Z,99405.28
2023-01-20T01:52:40.212Z,99405.59
2023-01-20T01:53:11.727Z,99406.38
2023-01-20T01:53:43.159Z,99409.41
2023-01-20T01:54:14.574Z,99414.88
2023-01-20T01:54:45.942Z,99405.59
2023-01-20T01:55:17.339Z,99421.13
2023-01-20T01:55:48.735Z,99404.78
2023-01-20T01:56:20.159Z,99405.59
2023-01-20T01:56:51.544Z,99411.03
2023-01-20T01:57:25.655Z,99415.97
2023-01-20T01:57:57.173Z,99412.75
2023-01-20T01:58:28.585Z,99419.00
2023-01-20T01:59:00.039Z,99417.91
2023-01-20T01:59:31.426Z,99418.69
2023-01-20T02:00:02.842Z,99419.81
2023-01-20T02:00:34.295Z,99418.69
2023-01-20T02:01:05.756Z,99417.91
2023-01-20T02:01:37.264Z,99417.91
2023-01-20T02:02:08.706Z,99414.06
2023-01-20T02:02:40.186Z,99407.19
2023-01-20T02:03:11.666Z,99416.50
2023-01-20T02:03:43.078Z,99421.94
2023-01-20T02:04:14.507Z,99421.94
2023-01-20T02:04:45.880Z,99418.41
2023-01-20T02:05:17.652Z,99416.50
2023-01-20T02:05:49.258Z,99413.25
2023-01-20T02:06:20.662Z,99413.25
2023-01-20T02:06:52.044Z,99413.25
2023-01-20T02:07:23.456Z,99413.25
2023-01-20T02:07:54.916Z,99411.34
2023-01-20T02:08:26.312Z,99412.94
2023-01-20T02:08:57.744Z,99418.69
2023-01-20T02:09:29.131Z,99412.16
2023-01-20T02:10:00.558Z,99412.16
2023-01-20T02:10:32.016Z,99420.81
2023-01-20T02:11:03.455Z,99414.88
2023-01-20T02:11:34.876Z,99413.25
2023-01-20T02:12:06.268Z,99413.25
2023-01-20T02:12:37.659Z,99413.25
2023-01-20T02:13:09.114Z,99410.81
2023-01-20T02:13:40.493Z,99408.91
2023-01-20T02:14:11.961Z,99412.44
2023-01-20T02:14:43.381Z,99413.75
2023-01-20T02:15:15.192Z,99413.47
2023-01-20T02:15:46.823Z,99410.22
2023-01-20T02:16:18.290Z,99410.03
2023-01-20T02:16:49.708Z,99416.56
2023-01-20T02:17:21.174Z,99413.56
2023-01-20T02:17:52.607Z,99419.00
2023-01-20T02:18:24.279Z,99412.75
2023-01-20T02:18:55.715Z,99412.75
2023-01-20T02:19:27.157Z,99413.34
2023-01-20T02:19:58.591Z,99413.56
2023-01-20T02:20:30.037Z,99417.69
2023-01-20T02:21:01.488Z,99412.75
2023-01-20T02:21:32.933Z,99407.59
2023-01-20T02:22:04.390Z,99416.28
2023-01-20T02:22:35.793Z,99409.22
2023-01-20T02:23:09.822Z,99417.91
2023-01-20T02:23:41.219Z,99404.78
2023-01-20T02:24:12.601Z,99416.50
2023-01-20T02:24:43.922Z,99418.69
2023-01-20T02:25:15.655Z,99419.81
2023-01-20T02:25:47.272Z,99419.50
2023-01-20T02:26:18.686Z,99417.09
2023-01-20T02:26:50.136Z,99417.09
2023-01-20T02:27:21.526Z,99420.91
2023-01-20T02:27:52.961Z,99417.09
2023-01-20T02:28:24.443Z,99416.28
2023-01-20T02:28:55.917Z,99419.81
2023-01-20T02:29:27.315Z,99419.00
2023-01-20T02:29:58.789Z,99419.81
2023-01-20T02:30:30.251Z,99420.41
2023-01-20T02:31:01.691Z,99424.75
2023-01-20T02:31:33.171Z,99422.53
2023-01-20T02:32:04.592Z,99423.84
2023-01-20T02:32:36.019Z,99422.44
2023-01-20T02:33:07.439Z,99426.78
2023-01-20T02:33:38.882Z,99424.34
2023-01-20T02:34:10.283Z,99421.63
2023-01-20T02:34:41.645Z,99425.97
2023-01-20T02:35:13.403Z,99422.16
2023-01-20T02:35:44.985Z,99428.41
2023-01-20T02:36:16.491Z,99424.34
2023-01-20T02:36:47.898Z,99423.25
2023-01-20T02:37:19.346Z,99429.50
2023-01-20T02:37:50.755Z,99428.69
2023-01-20T02:38:22.112Z,99428.41
2023-01-20T02:38:53.730Z,99428.69
2023-01-20T02:39:27.034Z,99429.50
2023-01-20T02:39:59.278Z,99430.63
2023-01-20T02:40:30.686Z,99427.91
2023-01-20T02:41:02.080Z,99433.84
2023-01-20T02:41:33.550Z,99436.59
2023-01-20T02:42:04.955Z,99436.06
2023-01-20T02:42:36.428Z,99433.66
2023-01-20T02:43:07.874Z,99434.47
2023-01-20T02:43:39.301Z,99437.19
2023-01-20T02:44:10.781Z,99441.53
2023-01-20T02:44:42.232Z,99438.78
2023-01-20T02:45:13.931Z,99444.56
2023-01-20T02:45:45.537Z,99444.56
2023-01-20T02:46:17.073Z,99439.69
2023-01-20T02:46:48.504Z,99441.00
2023-01-20T02:47:19.965Z,99442.94
2023-01-20T02:47:51.696Z,99443.75
2023-01-20T02:48:23.300Z,99443.75
2023-01-20T02:48:54.712Z,99448.09
2023-01-20T02:49:26.176Z,99444.56
2023-01-20T02:49:57.615Z,99442.63
2023-01-20T02:50:29.102Z,99442.94
2023-01-20T02:51:00.546Z,99449.69
2023-01-20T02:51:31.911Z,99444.56
2023-01-20T02:52:03.327Z,99439.69
2023-01-20T02:52:34.740Z,99441.31
2023-01-20T02:53:06.162Z,99443.75
2023-01-20T02:53:37.631Z,99442.13
2023-01-20T02:54:10.157Z,99439.41
2023-01-20T02:54:41.631Z,99442.94
2023-01-20T02:55:13.318Z,99449.19
2023-01-20T02:55:44.904Z,99445.66
2023-01-20T02:56:16.314Z,99443.22
2023-01-20T02:56:47.747Z,99444.03
2023-01-20T02:57:19.197Z,99449.19
2023-01-20T02:57:50.630Z,99445.97
2023-01-20T02:58:22.044Z,99449.19
2023-01-20T02:58:53.495Z,99449.50
2023-01-20T02:59:24.902Z,99449.50
2023-01-20T02:59:56.339Z,99451.41
2023-01-20T03:00:27.797Z,99451.91
2023-01-20T03:00:59.325Z,99449.19
2023-01-20T03:01:30.951Z,99455.75
2023-01-20T03:02:02.615Z,99456.84
2023-01-20T03:02:34.122Z,99459.88
2023-01-20T03:03:05.555Z,99452.22
2023-01-20T03:03:37.111Z,99463.13
2023-01-20T03:04:08.583Z,99460.69
2023-01-20T03:04:40.063Z,99457.66
2023-01-20T03:05:11.734Z,99455.75
2023-01-20T03:05:43.301Z,99459.28
2023-01-20T03:06:14.720Z,99456.25
2023-01-20T03:06:46.189Z,99456.25
2023-01-20T03:07:17.679Z,99461.50
2023-01-20T03:07:49.143Z,99455.75
2023-01-20T03:08:20.537Z,99449.50
2023-01-20T03:08:51.945Z,99454.63
2023-01-20T03:09:23.323Z,99454.63
2023-01-20T03:09:54.725Z,99457.38
2023-01-20T03:10:26.219Z,99459.28
2023-01-20T03:10:57.621Z,99457.38
2023-01-20T03:11:29.030Z,99459.78
2023-01-20T03:12:03.420Z,99459.28
2023-01-20T03:12:38.533Z,99460.91
2023-01-20T03:13:09.928Z,99454.94
2023-01-20T03:13:41.332Z,99456.84
2023-01-20T03:14:12.715Z,99459.06
2023-01-20T03:14:44.167Z,99457.66
2023-01-20T03:15:15.861Z,99461.50
2023-01-20T03:15:47.580Z,99454.44
2023-01-20T03:16:19.337Z,99461.78
2023-01-20T03:16:50.798Z,99464.00
2023-01-20T03:17:22.235Z,99468.34
2023-01-20T03:17:53.660Z,99460.19
2023-01-20T03:18:25.073Z,99462.31
2023-01-20T03:18:58.998Z,99462.31
2023-01-20T03:19:30.387Z,99463.41
2023-01-20T03:20:01.811Z,99467.47
2023-01-20T03:20:33.170Z,99467.16
2023-01-20T03:21:04.633Z,99458.47
2023-01-20T03:21:36.046Z,99460.09
2023-01-20T03:22:07.441Z,99462.59
2023-01-20T03:22:38.825Z,99457.97
2023-01-20T03:23:10.230Z,99465.03
2023-01-20T03:23:41.609Z,99465.03
2023-01-20T03:24:13.035Z,99467.75
2023-01-20T03:24:44.410Z,99459.28
2023-01-20T03:25:16.132Z,99462.81
2023-01-20T03:25:47.791Z,99468.28
2023-01-20T03:26:19.281Z,99464.72
2023-01-20T03:26:50.694Z,99465.53
2023-01-20T03:27:22.158Z,99468.56
2023-01-20T03:27:53.544Z,99460.09
2023-01-20T03:28:24.926Z,99465.53
2023-01-20T03:28:56.356Z,99462.81
2023-01-20T03:29:27.752Z,99463.63
2023-01-20T03:29:59.166Z,99468.56
2023-01-20T03:30:30.677Z,99465.84
2023-01-20T03:31:02.193Z,99468.28
2023-01-20T03:31:33.861Z,99463.94
2023-01-20T03:32:05.486Z,99465.34
2023-01-20T03:32:36.884Z,99465.34
2023-01-20T03:33:08.287Z,99471.69
2023-01-20T03:33:39.708Z,99463.41
2023-01-20T03:34:11.155Z,99466.16
2023-01-20T03:34:42.575Z,99466.44
2023-01-20T03:35:14.322Z,99470.47
2023-01-20T03:35:45.889Z,99470.47
2023-01-20T03:36:17.294Z,99465.34
2023-01-20T03:36:48.817Z,99465.03
2023-01-20T03:37:20.226Z,99472.09
2023-01-20T03:37:51.664Z,99474.31
2023-01-20T03:38:23.104Z,99470.56
2023-01-20T03:38:54.518Z,99477.94
2023-01-20T03:39:25.923Z,99479.56
2023-01-20T03:39:57.315Z,99476.75
2023-01-20T03:40:28.786Z,99471.28
2023-01-20T03:41:00.186Z,99477.56
2023-01-20T03:41:31.576Z,99484.63
2023-01-20T03:42:03.031Z,99483.00
2023-01-20T03:42:34.407Z,99474.03
2023-01-20T03:43:05.770Z,99476.75
2023-01-20T03:43:37.200Z,99483.81
2023-01-20T03:44:08.599Z,99474.81
2023-01-20T03:44:40.039Z,99480.28
2023-01-20T03:45:11.449Z,99481.38
2023-01-20T03:45:42.905Z,99477.03
2023-01-20T03:46:14.399Z,99481.91
2023-01-20T03:46:45.819Z,99485.72
2023-01-20T03:47:17.237Z,99482.72
2023-01-20T03:47:48.598Z,99483.50
2023-01-20T03:48:19.957Z,99484.31
2023-01-20T03:48:51.426Z,99479.16
2023-01-20T03:49:22.830Z,99490.06
2023-01-20T03:49:54.230Z,99490.38
2023-01-20T03:50:25.654Z,99481.38
2023-01-20T03:50:57.043Z,99484.13
2023-01-20T03:51:28.425Z,99490.66
2023-01-20T03:51:59.841Z,99481.09
2023-01-20T03:52:47.410Z,99476.44
2023-01-20T03:53:19.958Z,99490.59
2023-01-20T03:53:51.398Z,99483.81
2023-01-20T03:54:22.804Z,99483.50
2023-01-20T03:54:54.203Z,99485.44
2023-01-20T03:55:25.598Z,99481.28
2023-01-20T03:55:57.047Z,99485.63
2023-01-20T03:56:28.441Z,99496.03
2023-01-20T03:56:59.851Z,99493.31
2023-01-20T03:57:31.190Z,99488.66
2023-01-20T03:58:02.611Z,99493.31
2023-01-20T03:58:34.039Z,99492.19
2023-01-20T03:59:05.469Z,99497.44
2023-01-20T03:59:36.950Z,99497.16
2023-01-20T04:00:08.396Z,99493.91
2023-01-20T04:00:39.798Z,99502.59
2023-01-20T04:01:17.874Z,99493.31
2023-01-20T04:01:50.554Z,99494.72
2023-01-20T04:02:22.096Z,99499.34
2023-01-20T04:02:53.624Z,99496.34
2023-01-20T04:03:25.026Z,99499.88
2023-01-20T04:03:56.472Z,99496.03
2023-01-20T04:04:27.893Z,99497.44
2023-01-20T04:04:59.670Z,99499.88
2023-01-20T04:05:31.087Z,99503.69
2023-01-20T04:06:05.505Z,99496.03
2023-01-20T04:06:36.904Z,99494.41
2023-01-20T04:07:08.306Z,99501.47
2023-01-20T04:07:39.739Z,99498.25
2023-01-20T04:08:11.173Z,99497.16
2023-01-20T04:08:42.604Z,99497.94
2023-01-20T04:09:14.021Z,99497.16
2023-01-20T04:09:45.445Z,99502.59
2023-01-20T04:10:16.926Z,99499.88
2023-01-20T04:10:48.384Z,99506.13
2023-01-20T04:11:19.837Z,99500.69
2023-01-20T04:11:51.260Z,99499.56
2023-01-20T04:12:22.867Z,99504.22
2023-01-20T04:12:54.265Z,99500.69
2023-01-20T04:13:25.697Z,99506.94
2023-01-20T04:13:57.150Z,99501.78
2023-01-20T04:14:28.560Z,99506.94
2023-01-20T04:14:59.966Z,99505.09
2023-01-20T04:15:31.469Z,99496.94
2023-01-20T04:16:02.937Z,99500.47
2023-01-20T04:16:34.361Z,99500.97
2023-01-20T04:17:05.769Z,99500.47
2023-01-20T04:17:37.238Z,99504.28
2023-01-20T04:18:08.636Z,99507.84
2023-01-20T04:18:40.081Z,99506.13
2023-01-20T04:19:11.477Z,99509.97
2023-01-20T04:19:42.851Z,99508.56
2023-01-20T04:20:14.226Z,99505.03
2023-01-20T04:20:45.724Z,99509.38
2023-01-20T04:21:17.127Z,99506.94
2023-01-20T04:21:48.568Z,99507.75
2023-01-20T04:22:19.937Z,99509.97
2023-01-20T04:22:51.333Z,99516.22
2023-01-20T04:23:22.753Z,99514.31
2023-01-20T04:23:54.135Z,99513.50
2023-01-20T04:24:25.570Z,99517.13
2023-01-20T04:24:56.954Z,99515.72
2023-01-20T04:25:28.351Z,99512.38
2023-01-20T04:25:59.776Z,99508.84
2023-01-20T04:26:31.178Z,99521.38
2023-01-20T04:27:02.632Z,99521.38
2023-01-20T04:27:34.033Z,99521.38
2023-01-20T04:28:05.439Z,99521.38
2023-01-20T04:28:36.861Z,99526.31
2023-01-20T04:29:09.904Z,99522.47
2023-01-20T04:29:43.361Z,99520.56
2023-01-20T04:30:14.844Z,99518.72
2023-01-20T04:30:46.370Z,99521.16
2023-01-20T04:31:29.501Z,99516.00
2023-01-20T04:32:01.844Z,99518.94
2023-01-20T04:32:33.317Z,99520.06
2023-01-20T04:33:04.711Z,99523.28
2023-01-20T04:33:36.142Z,99529.84
2023-01-20T04:34:07.555Z,99520.84
2023-01-20T04:34:39.057Z,99522.47
2023-01-20T04:35:10.485Z,99518.44
2023-01-20T04:35:41.895Z,99522.78
2023-01-20T04:36:13.293Z,99519.25
2023-01-20T04:36:44.734Z,99519.25
2023-01-20T04:37:16.140Z,99521.66
2023-01-20T04:37:47.640Z,99521.75
2023-01-20T04:38:19.053Z,99527.41
2023-01-20T04:38:50.443Z,99531.84
2023-01-20T04:39:21.987Z,99525.59
2023-01-20T04:39:53.395Z,99526.09
2023-01-20T04:40:24.834Z,99523.06
2023-01-20T04:40:56.271Z,99530.75
2023-01-20T04:41:27.650Z,99523.88
2023-01-20T04:41:59.035Z,99523.38
2023-01-20T04:42:30.457Z,99530.53
2023-01-20T04:43:01.862Z,99527.22
2023-01-20T04:43:33.255Z,99525.88
2023-01-20T04:44:04.652Z,99524.19
2023-01-20T04:44:36.152Z,99517.91
2023-01-20T04:45:07.597Z,99528.31
2023-01-20T04:45:39.006Z,99518.72
2023-01-20T04:46:10.415Z,99530.22
2023-01-20T04:46:41.936Z,99521.16
2023-01-20T04:47:13.402Z,99523.88
2023-01-20T04:47:44.852Z,99523.88
2023-01-20T04:48:16.340Z,99523.88
2023-01-20T04:48:47.797Z,99525.81
2023-01-20T04:49:19.207Z,99529.94
2023-01-20T04:49:50.666Z,99526.69
2023-01-20T04:50:22.081Z,99530.22
2023-01-20T04:50:53.485Z,99534.56
2023-01-20T04:51:24.957Z,99532.66
2023-01-20T04:51:56.370Z,99528.00
2023-01-20T04:52:27.772Z,99539.44
2023-01-20T04:53:00.779Z,99535.38
2023-01-20T04:53:32.347Z,99540.25
2023-01-20T04:54:03.771Z,99533.69
2023-01-20T04:54:35.200Z,99537.50
2023-01-20T04:55:06.709Z,99538.03
2023-01-20T04:55:38.084Z,99536.41
2023-01-20T04:56:09.505Z,99532.56
2023-01-20T04:56:40.888Z,99528.75
2023-01-20T04:57:12.365Z,99529.53
2023-01-20T04:57:43.773Z,99540.44
2023-01-20T04:58:15.188Z,99536.41
2023-01-20T04:58:46.562Z,99537.72
2023-01-20T04:59:17.972Z,99539.94
2023-01-20T04:59:49.389Z,99541.84
2023-01-20T05:00:20.799Z,99540.75
2023-01-20T05:00:52.182Z,99538.84
2023-01-20T05:01:23.689Z,99533.97
2023-01-20T05:01:55.465Z,99539.13
2023-01-20T05:02:27.062Z,99533.16
2023-01-20T05:02:58.554Z,99542.16
2023-01-20T05:03:30.012Z,99539.72
2023-01-20T05:04:01.401Z,99541.34
2023-01-20T05:04:32.878Z,99536.41
2023-01-20T05:05:04.342Z,99539.66
2023-01-20T05:05:35.912Z,99542.16
2023-01-20T05:06:07.327Z,99542.16
2023-01-20T05:06:38.726Z,99541.84
2023-01-20T05:07:10.125Z,99540.25
2023-01-20T05:07:41.527Z,99538.63
2023-01-20T05:08:12.902Z,99540.25
2023-01-20T05:08:44.351Z,99543.47
2023-01-20T05:09:15.823Z,99542.16
2023-01-20T05:09:47.205Z,99542.66
2023-01-20T05:10:18.633Z,99540.75
2023-01-20T05:10:50.162Z,99542.97
2023-01-20T05:11:21.546Z,99544.28
2023-01-20T05:11:52.935Z,99539.66
2023-01-20T05:12:24.442Z,99549.22
2023-01-20T05:12:55.899Z,99546.50
2023-01-20T05:13:27.338Z,99548.94
2023-01-20T05:13:58.755Z,99547.81
2023-01-20T05:14:30.217Z,99545.09
2023-01-20T05:15:01.658Z,99550.03
2023-01-20T05:15:33.085Z,99547.59
2023-01-20T05:16:04.758Z,99554.66
2023-01-20T05:16:36.155Z,99555.47
2023-01-20T05:17:07.563Z,99548.94
2023-01-20T05:17:38.976Z,99556.00
2023-01-20T05:18:10.413Z,99556.00
2023-01-20T05:18:41.824Z,99549.53
2023-01-20T05:19:13.280Z,99548.19
2023-01-20T05:19:44.680Z,99553.56
2023-01-20T05:20:16.087Z,99553.34
2023-01-20T05:20:47.511Z,99555.19
2023-01-20T05:21:18.997Z,99560.63
2023-01-20T05:21:50.388Z,99560.13
2023-01-20T05:22:21.810Z,99550.34
2023-01-20T05:22:53.190Z,99554.16
2023-01-20T05:23:24.601Z,99555.56
2023-01-20T05:23:55.995Z,99560.41
2023-01-20T05:24:27.369Z,99559.31
2023-01-20T05:24:58.800Z,99560.13
2023-01-20T05:25:30.200Z,99558.00
2023-01-20T05:26:04.583Z,99559.09
2023-01-20T05:26:36.053Z,99558.22
2023-01-20T05:27:07.410Z,99559.31
2023-01-20T05:27:38.910Z,99553.06
2023-01-20T05:28:10.331Z,99560.13
2023-01-20T05:28:41.727Z,99561.81
2023-01-20T05:29:13.112Z,99556.59
2023-01-20T05:29:44.524Z,99563.66
2023-01-20T05:30:15.958Z,99561.22
2023-01-20T05:30:47.424Z,99564.75
2023-01-20T05:31:19.026Z,99563.66
2023-01-20T05:31:50.607Z,99561.22
2023-01-20T05:32:22.119Z,99561.00
2023-01-20T05:32:53.503Z,99569.50
2023-01-20T05:33:24.903Z,99567.28
2023-01-20T05:33:56.280Z,99569.50
2023-01-20T05:34:27.699Z,99568.69
2023-01-20T05:34:59.113Z,99573.53
2023-01-20T05:35:30.566Z,99575.97
2023-01-20T05:36:01.916Z,99574.06
2023-01-20T05:36:33.361Z,99569.19
2023-01-20T05:37:04.835Z,99570.09
2023-01-20T05:37:36.264Z,99572.50
2023-01-20T05:38:07.669Z,99569.69
2023-01-20T05:38:39.077Z,99574.06
2023-01-20T05:39:10.524Z,99571.84
2023-01-20T05:39:41.939Z,99572.66
2023-01-20T05:40:13.340Z,99575.66
2023-01-20T05:40:44.780Z,99569.19
2023-01-20T05:41:16.190Z,99578.69
2023-01-20T05:41:47.662Z,99571.41
2023-01-20T05:42:19.108Z,99577.66
2023-01-20T05:42:50.546Z,99580.59
2023-01-20T05:43:21.949Z,99578.41
2023-01-20T05:43:53.401Z,99580.81
2023-01-20T05:44:24.833Z,99585.47
2023-01-20T05:44:56.232Z,99575.16
2023-01-20T05:45:27.634Z,99572.50
2023-01-20T05:45:59.029Z,99582.31
2023-01-20T05:46:30.462Z,99578.78
2023-01-20T05:47:01.882Z,99574.13
2023-01-20T05:47:33.377Z,99577.88
2023-01-20T05:48:04.787Z,99575.97
2023-01-20T05:48:36.162Z,99579.00
2023-01-20T05:49:10.346Z,99584.13
2023-01-20T05:49:41.756Z,99581.72
2023-01-20T05:50:13.203Z,99582.81
2023-01-20T05:50:44.821Z,99583.41
2023-01-20T05:51:16.285Z,99583.91
2023-01-20T05:51:47.683Z,99583.63
2023-01-20T05:52:19.189Z,99587.69
2023-01-20T05:52:50.700Z,99592.03
2023-01-20T05:53:22.093Z,99590.91
2023-01-20T05:53:53.499Z,99584.66
2023-01-20T05:54:24.859Z,99585.16
2023-01-20T05:54:56.271Z,99588.19
2023-01-20T05:55:27.686Z,99589.06
2023-01-20T05:55:59.102Z,99593.41
2023-01-20T05:56:30.497Z,99587.47
2023-01-20T05:57:01.927Z,99588.47
2023-01-20T05:57:33.359Z,99594.22
2023-01-20T05:58:04.836Z,99589.59
2023-01-20T05:58:36.276Z,99588.47
2023-01-20T05:59:07.797Z,99593.13
2023-01-20T05:59:39.210Z,99588.47
2023-01-20T06:00:10.704Z,99593.13
2023-01-20T06:00:42.120Z,99594.22
2023-01-20T06:01:13.616Z,99598.56
2023-01-20T06:01:45.051Z,99599.38
2023-01-20T06:02:16.444Z,99600.19
2023-01-20T06:02:47.947Z,99593.94
2023-01-20T06:03:19.456Z,99592.03
2023-01-20T06:03:50.847Z,99598.28
2023-01-20T06:04:22.281Z,99593.63
2023-01-20T06:04:53.685Z,99602.63
2023-01-20T06:05:25.079Z,99590.09
2023-01-20T06:05:56.539Z,99594.44
2023-01-20T06:06:27.954Z,99600.41
2023-01-20T06:06:59.372Z,99599.09
2023-01-20T06:07:30.784Z,99596.97
2023-01-20T06:08:02.246Z,99600.50
2023-01-20T06:08:33.711Z,99604.03
2023-01-20T06:09:05.176Z,99602.91
2023-01-20T06:09:36.594Z,99601.81
2023-01-20T06:10:08.042Z,99597.97
2023-01-20T06:10:39.481Z,99598.78